Maersk Windhoek — 3FWJ3 — position and weather

sailwx.info

Track history (hours):
 
Tides and Currents Weather Stations Pressure Air Temp Water Temp Dewpoint Dewpoint Depression Visibility Wind Speed Wind Dir Waves Ship Positions

Maersk Windhoek

Last reported at 2015-May-20 21:33 UTC. Time now 2015-May-28 22:12 UTC.
Position N 35°58' W 005°34'.
Warning: this ship's position is 8 days out of date.

Length 172 m; draft 9.5 m.

Type: Ship (hazmat cat C). MMSI: 370431000.

Date/timePositionNaut miles runAvg speedWind from/ knotsBaromVisibWave heightAir tempDewpointWater temp
2015-May-20 21:33N 35°58' W 005°34'1010.5
2015-May-20 20:33N 36°04' W 005°23'2 1.7
2015-May-20 19:33N 36°05' W 005°25'0 0.0
2015-May-20 18:33N 36°05' W 005°25'0 0.0
2015-May-20 17:33N 36°05' W 005°25'0 0.1
2015-May-20 16:33N 36°05' W 005°25'0 0.1
2015-May-20 15:33N 36°06' W 005°24'3 2.8
2015-May-20 14:34N 36°08' W 005°25'1 1.2
2015-May-20 13:25N 36°08' W 005°26'0 0.0
2015-May-20 12:31N 36°08' W 005°26'0 0.0
2015-May-20 10:28N 36°08' W 005°26'0 0.0
2015-May-20 09:25N 36°08' W 005°26'0 0.0
2015-May-20 08:19N 36°08' W 005°26'0 0.0
2015-May-20 07:25N 36°08' W 005°26'0 0.0
2015-May-20 06:31N 36°08' W 005°26'0 0.0
2015-May-20 05:31N 36°08' W 005°26'0 0.0
2015-May-20 04:28N 36°08' W 005°26'0 0.0
2015-May-20 03:22N 36°08' W 005°26'0 0.0
2015-May-20 02:28N 36°08' W 005°26'0 0.0
2015-May-20 01:13N 36°08' W 005°26'0 0.0
2015-May-20 00:22N 36°08' W 005°26'0 0.0
2015-May-19 23:31N 36°08' W 005°26'0 0.0
2015-May-19 22:31N 36°08' W 005°26'0 0.0
2015-May-19 21:31N 36°08' W 005°26'0 0.0
2015-May-19 20:25N 36°08' W 005°26'0 0.0
2015-May-19 19:31N 36°08' W 005°26'0 0.0
2015-May-19 18:31N 36°08' W 005°26'0 0.0
2015-May-19 17:28N 36°08' W 005°26'0 0.0
2015-May-19 16:22N 36°08' W 005°26'0 0.0
2015-May-19 15:11N 36°08' W 005°26'2 2.6
2015-May-19 14:25N 36°08' W 005°24'5 5.1
2015-May-19 13:32N 36°05' W 005°20'0 0.4
2015-May-19 12:33N 36°04' W 005°20'0 0.3
2015-May-19 11:33N 36°05' W 005°20'8 7.9
2015-May-19 10:33N 36°06' W 005°10'5 0.7
2015-May-19 04:05N 36°06' W 005°05'1 1.3
2015-May-19 03:32N 36°05' W 005°05'7 0.9
2015-May-18 20:04N 36°11' W 005°11'2 2.5
2015-May-18 19:08N 36°11' W 005°14'0 0.4
2015-May-18 18:33N 36°10' W 005°14'1 0.8
2015-May-18 17:32N 36°10' W 005°14'1 1.1
2015-May-18 16:31N 36°09' W 005°14'1 1.1
2015-May-18 15:33N 36°08' W 005°14'1 0.8
2015-May-18 14:31N 36°07' W 005°14'3 2.8
2015-May-18 13:32N 36°06' W 005°17'1 0.9
2015-May-18 12:32N 36°06' W 005°16'1 1.1
2015-May-18 11:32N 36°06' W 005°15'9 9.1
2015-May-18 10:34N 35°59' W 005°22'9 0.6
2015-May-17 19:22N 35°53' W 005°30'11 6.2
2015-May-17 17:32N 35°54' W 005°44'29 0.7
2015-May-16 01:17N 36°05' W 006°17'51 2.5
2015-May-15 05:22N 35°22' W 006°51'4215.0
2015-May-15 02:33N 34°53' W 007°29'1515.0
2015-May-15 01:32N 34°42' W 007°42'1514.8
2015-May-15 00:33N 34°32' W 007°55'1515.0
2015-May-14 23:33N 34°22' W 008°08'1514.8
2015-May-14 22:33N 34°12' W 008°21'4614.8
2015-May-14 19:26N 33°40' W 009°01'6014.8
2015-May-14 15:23N 32°58' W 009°52'6415.4
2015-May-14 11:14N 32°05' W 010°35'2915.9
2015-May-14 09:24N 31°41' W 010°54'1315.4
2015-May-14 08:33N 31°30' W 011°02'1515.5
2015-May-14 07:33N 31°17' W 011°12'1515.3
2015-May-14 06:33N 31°04' W 011°21'1515.3
2015-May-14 05:33N 30°51' W 011°31'1515.2
2015-May-14 04:33N 30°38' W 011°41'1615.6
2015-May-14 03:32N 30°25' W 011°50'1716.2
2015-May-14 02:31N 30°11' W 012°01'1516.0
2015-May-14 01:33N 29°58' W 012°10'1815.3
2015-May-14 00:24N 29°43' W 012°21'2015.2
2015-May-13 23:07N 29°26' W 012°33'5615.5
2015-May-13 19:29N 28°39' W 013°08'5216.1
2015-May-13 16:13N 27°55' W 013°40'1817.5
2015-May-13 15:11N 27°41' W 013°53'  
Track history (hours):
 
Tides and Currents Weather Stations Pressure Air Temp Water Temp Dewpoint Dewpoint Depression Visibility Wind Speed Wind Dir Waves Ship Positions

Maersk Windhoek

Last reported at 2015-May-20 21:33 UTC. Time now 2015-May-28 22:12 UTC.
Position N 35°58' W 005°34'.
Warning: this ship's position is 8 days out of date.

Length 172 m; draft 9.5 m.

Type: Ship (hazmat cat C). MMSI: 370431000.

Date/timePositionNaut miles runAvg speedWind from/ knotsBaromVisibWave heightAir tempDewpointWater temp
2015-May-20 21:33N 35°58' W 005°34'1010.5
2015-May-20 20:33N 36°04' W 005°23'2 1.7
2015-May-20 19:33N 36°05' W 005°25'0 0.0
2015-May-20 18:33N 36°05' W 005°25'0 0.0
2015-May-20 17:33N 36°05' W 005°25'0 0.1
2015-May-20 16:33N 36°05' W 005°25'0 0.1
2015-May-20 15:33N 36°06' W 005°24'3 2.8
2015-May-20 14:34N 36°08' W 005°25'1 1.2
2015-May-20 13:25N 36°08' W 005°26'0 0.0
2015-May-20 12:31N 36°08' W 005°26'0 0.0
2015-May-20 10:28N 36°08' W 005°26'0 0.0
2015-May-20 09:25N 36°08' W 005°26'0 0.0
2015-May-20 08:19N 36°08' W 005°26'0 0.0
2015-May-20 07:25N 36°08' W 005°26'0 0.0
2015-May-20 06:31N 36°08' W 005°26'0 0.0
2015-May-20 05:31N 36°08' W 005°26'0 0.0
2015-May-20 04:28N 36°08' W 005°26'0 0.0
2015-May-20 03:22N 36°08' W 005°26'0 0.0
2015-May-20 02:28N 36°08' W 005°26'0 0.0
2015-May-20 01:13N 36°08' W 005°26'0 0.0
2015-May-20 00:22N 36°08' W 005°26'0 0.0
2015-May-19 23:31N 36°08' W 005°26'0 0.0
2015-May-19 22:31N 36°08' W 005°26'0 0.0
2015-May-19 21:31N 36°08' W 005°26'0 0.0
2015-May-19 20:25N 36°08' W 005°26'0 0.0
2015-May-19 19:31N 36°08' W 005°26'0 0.0
2015-May-19 18:31N 36°08' W 005°26'0 0.0
2015-May-19 17:28N 36°08' W 005°26'0 0.0
2015-May-19 16:22N 36°08' W 005°26'0 0.0
2015-May-19 15:11N 36°08' W 005°26'2 2.6
2015-May-19 14:25N 36°08' W 005°24'5 5.1
2015-May-19 13:32N 36°05' W 005°20'0 0.4
2015-May-19 12:33N 36°04' W 005°20'0 0.3
2015-May-19 11:33N 36°05' W 005°20'8 7.9
2015-May-19 10:33N 36°06' W 005°10'5 0.7
2015-May-19 04:05N 36°06' W 005°05'1 1.3
2015-May-19 03:32N 36°05' W 005°05'7 0.9
2015-May-18 20:04N 36°11' W 005°11'2 2.5
2015-May-18 19:08N 36°11' W 005°14'0 0.4
2015-May-18 18:33N 36°10' W 005°14'1 0.8
2015-May-18 17:32N 36°10' W 005°14'1 1.1
2015-May-18 16:31N 36°09' W 005°14'1 1.1
2015-May-18 15:33N 36°08' W 005°14'1 0.8
2015-May-18 14:31N 36°07' W 005°14'3 2.8
2015-May-18 13:32N 36°06' W 005°17'1 0.9
2015-May-18 12:32N 36°06' W 005°16'1 1.1
2015-May-18 11:32N 36°06' W 005°15'9 9.1
2015-May-18 10:34N 35°59' W 005°22'9 0.6
2015-May-17 19:22N 35°53' W 005°30'11 6.2
2015-May-17 17:32N 35°54' W 005°44'29 0.7
2015-May-16 01:17N 36°05' W 006°17'51 2.5
2015-May-15 05:22N 35°22' W 006°51'4215.0
2015-May-15 02:33N 34°53' W 007°29'1515.0
2015-May-15 01:32N 34°42' W 007°42'1514.8
2015-May-15 00:33N 34°32' W 007°55'1515.0
2015-May-14 23:33N 34°22' W 008°08'1514.8
2015-May-14 22:33N 34°12' W 008°21'4614.8
2015-May-14 19:26N 33°40' W 009°01'6014.8
2015-May-14 15:23N 32°58' W 009°52'6415.4
2015-May-14 11:14N 32°05' W 010°35'2915.9
2015-May-14 09:24N 31°41' W 010°54'1315.4
2015-May-14 08:33N 31°30' W 011°02'1515.5
2015-May-14 07:33N 31°17' W 011°12'1515.3
2015-May-14 06:33N 31°04' W 011°21'1515.3
2015-May-14 05:33N 30°51' W 011°31'1515.2
2015-May-14 04:33N 30°38' W 011°41'1615.6
2015-May-14 03:32N 30°25' W 011°50'1716.2
2015-May-14 02:31N 30°11' W 012°01'1516.0
2015-May-14 01:33N 29°58' W 012°10'1815.3
2015-May-14 00:24N 29°43' W 012°21'2015.2
2015-May-13 23:07N 29°26' W 012°33'5615.5
2015-May-13 19:29N 28°39' W 013°08'5216.1
2015-May-13 16:13N 27°55' W 013°40'1817.5
2015-May-13 15:11N 27°41' W 013°53'  

Dump ship's entire track history